sensor_id;sensor_type;location;lat;lon;timestamp;temperature;humidity
27188;DHT22;14708;50.872;5.306;2022-08-19T00:00:29;25.60;58.70
27188;DHT22;14708;50.872;5.306;2022-08-19T00:02:54;25.60;58.80
27188;DHT22;14708;50.872;5.306;2022-08-19T00:05:21;25.60;58.80
27188;DHT22;14708;50.872;5.306;2022-08-19T00:07:48;25.60;58.80
27188;DHT22;14708;50.872;5.306;2022-08-19T00:10:15;25.60;58.60
27188;DHT22;14708;50.872;5.306;2022-08-19T00:12:41;25.60;58.70
27188;DHT22;14708;50.872;5.306;2022-08-19T00:15:10;25.50;58.70
27188;DHT22;14708;50.872;5.306;2022-08-19T00:17:39;25.60;58.80
27188;DHT22;14708;50.872;5.306;2022-08-19T00:20:06;25.50;58.60
27188;DHT22;14708;50.872;5.306;2022-08-19T00:22:32;25.60;58.60
27188;DHT22;14708;50.872;5.306;2022-08-19T00:24:58;25.50;58.80
27188;DHT22;14708;50.872;5.306;2022-08-19T00:27:24;25.50;58.60
27188;DHT22;14708;50.872;5.306;2022-08-19T00:29:49;25.50;58.80
27188;DHT22;14708;50.872;5.306;2022-08-19T00:32:15;25.50;58.80
27188;DHT22;14708;50.872;5.306;2022-08-19T00:34:41;25.50;58.80
27188;DHT22;14708;50.872;5.306;2022-08-19T00:37:07;25.50;58.80
27188;DHT22;14708;50.872;5.306;2022-08-19T00:39:32;25.50;58.80
27188;DHT22;14708;50.872;5.306;2022-08-19T00:41:58;25.50;58.60
27188;DHT22;14708;50.872;5.306;2022-08-19T00:44:27;25.50;58.70
27188;DHT22;14708;50.872;5.306;2022-08-19T00:46:54;25.50;58.80
27188;DHT22;14708;50.872;5.306;2022-08-19T00:49:31;25.50;58.80
27188;DHT22;14708;50.872;5.306;2022-08-19T00:52:09;25.50;58.80
27188;DHT22;14708;50.872;5.306;2022-08-19T00:54:38;25.50;58.70
27188;DHT22;14708;50.872;5.306;2022-08-19T00:57:06;25.50;58.70
27188;DHT22;14708;50.872;5.306;2022-08-19T00:59:35;25.50;58.60
27188;DHT22;14708;50.872;5.306;2022-08-19T01:02:02;25.50;58.60
27188;DHT22;14708;50.872;5.306;2022-08-19T01:04:28;25.50;58.70
27188;DHT22;14708;50.872;5.306;2022-08-19T01:06:55;25.40;58.80
27188;DHT22;14708;50.872;5.306;2022-08-19T01:09:21;25.40;58.80
27188;DHT22;14708;50.872;5.306;2022-08-19T01:11:47;25.40;58.60
27188;DHT22;14708;50.872;5.306;2022-08-19T01:14:13;25.50;58.90
27188;DHT22;14708;50.872;5.306;2022-08-19T01:16:40;25.40;58.90
27188;DHT22;14708;50.872;5.306;2022-08-19T01:19:20;25.40;58.80
27188;DHT22;14708;50.872;5.306;2022-08-19T01:21:55;25.40;58.80
27188;DHT22;14708;50.872;5.306;2022-08-19T01:24:23;25.50;58.90
27188;DHT22;14708;50.872;5.306;2022-08-19T01:26:48;25.40;58.80
27188;DHT22;14708;50.872;5.306;2022-08-19T01:29:14;25.40;58.90
27188;DHT22;14708;50.872;5.306;2022-08-19T01:31:40;25.40;58.90
27188;DHT22;14708;50.872;5.306;2022-08-19T01:34:06;25.40;58.90
27188;DHT22;14708;50.872;5.306;2022-08-19T01:36:42;25.40;58.90
27188;DHT22;14708;50.872;5.306;2022-08-19T01:39:15;25.40;58.80
27188;DHT22;14708;50.872;5.306;2022-08-19T01:41:41;25.40;58.90
27188;DHT22;14708;50.872;5.306;2022-08-19T01:44:08;25.40;58.90
27188;DHT22;14708;50.872;5.306;2022-08-19T01:46:35;25.40;58.90
27188;DHT22;14708;50.872;5.306;2022-08-19T01:49:03;25.40;58.90
27188;DHT22;14708;50.872;5.306;2022-08-19T01:51:29;25.40;59.00
27188;DHT22;14708;50.872;5.306;2022-08-19T01:53:56;25.40;59.00
27188;DHT22;14708;50.872;5.306;2022-08-19T01:56:22;25.40;58.80
27188;DHT22;14708;50.872;5.306;2022-08-19T01:58:52;25.40;58.90
27188;DHT22;14708;50.872;5.306;2022-08-19T02:01:18;25.40;59.00
27188;DHT22;14708;50.872;5.306;2022-08-19T02:03:44;25.40;59.00
27188;DHT22;14708;50.872;5.306;2022-08-19T02:06:11;25.40;59.00
27188;DHT22;14708;50.872;5.306;2022-08-19T02:08:38;25.40;59.00
27188;DHT22;14708;50.872;5.306;2022-08-19T02:11:04;25.40;58.90
27188;DHT22;14708;50.872;5.306;2022-08-19T02:13:31;25.40;59.00
27188;DHT22;14708;50.872;5.306;2022-08-19T02:15:56;25.40;59.00
27188;DHT22;14708;50.872;5.306;2022-08-19T02:18:23;25.30;58.80
27188;DHT22;14708;50.872;5.306;2022-08-19T02:20:48;25.40;58.90
27188;DHT22;14708;50.872;5.306;2022-08-19T02:23:15;25.30;58.80
27188;DHT22;14708;50.872;5.306;2022-08-19T02:25:43;25.30;58.90
27188;DHT22;14708;50.872;5.306;2022-08-19T02:28:09;25.30;58.80
27188;DHT22;14708;50.872;5.306;2022-08-19T02:30:36;25.30;58.90
27188;DHT22;14708;50.872;5.306;2022-08-19T02:33:04;25.30;58.90
27188;DHT22;14708;50.872;5.306;2022-08-19T02:35:30;25.30;58.80
27188;DHT22;14708;50.872;5.306;2022-08-19T02:37:55;25.30;58.80
27188;DHT22;14708;50.872;5.306;2022-08-19T02:40:39;25.40;58.90
27188;DHT22;14708;50.872;5.306;2022-08-19T02:43:06;25.30;58.80
27188;DHT22;14708;50.872;5.306;2022-08-19T02:45:37;25.30;58.80
27188;DHT22;14708;50.872;5.306;2022-08-19T02:48:03;25.30;58.90
27188;DHT22;14708;50.872;5.306;2022-08-19T02:50:30;25.30;58.90
27188;DHT22;14708;50.872;5.306;2022-08-19T02:52:56;25.30;58.80
27188;DHT22;14708;50.872;5.306;2022-08-19T02:55:22;25.30;58.90
27188;DHT22;14708;50.872;5.306;2022-08-19T02:57:48;25.30;58.80
27188;DHT22;14708;50.872;5.306;2022-08-19T03:00:14;25.30;58.90
27188;DHT22;14708;50.872;5.306;2022-08-19T03:02:40;25.30;59.00
27188;DHT22;14708;50.872;5.306;2022-08-19T03:05:08;25.30;58.90
27188;DHT22;14708;50.872;5.306;2022-08-19T03:07:35;25.30;58.80
27188;DHT22;14708;50.872;5.306;2022-08-19T03:10:01;25.30;58.80
27188;DHT22;14708;50.872;5.306;2022-08-19T03:12:26;25.30;58.80
27188;DHT22;14708;50.872;5.306;2022-08-19T03:14:52;25.30;58.80
27188;DHT22;14708;50.872;5.306;2022-08-19T03:17:18;25.30;58.80
27188;DHT22;14708;50.872;5.306;2022-08-19T03:19:44;25.30;58.80
27188;DHT22;14708;50.872;5.306;2022-08-19T03:22:10;25.30;58.80
27188;DHT22;14708;50.872;5.306;2022-08-19T03:24:35;25.30;58.60
27188;DHT22;14708;50.872;5.306;2022-08-19T03:27:01;25.30;58.60
27188;DHT22;14708;50.872;5.306;2022-08-19T03:29:30;25.30;58.50
27188;DHT22;14708;50.872;5.306;2022-08-19T03:31:58;25.30;58.80
27188;DHT22;14708;50.872;5.306;2022-08-19T03:34:28;25.30;58.90
27188;DHT22;14708;50.872;5.306;2022-08-19T03:36:57;25.30;58.80
27188;DHT22;14708;50.872;5.306;2022-08-19T03:39:24;25.20;58.80
27188;DHT22;14708;50.872;5.306;2022-08-19T03:41:53;25.30;58.80
27188;DHT22;14708;50.872;5.306;2022-08-19T03:44:22;25.20;58.80
27188;DHT22;14708;50.872;5.306;2022-08-19T03:46:53;25.30;58.80
27188;DHT22;14708;50.872;5.306;2022-08-19T03:49:21;25.20;58.80
27188;DHT22;14708;50.872;5.306;2022-08-19T03:51:49;25.20;58.80
27188;DHT22;14708;50.872;5.306;2022-08-19T03:54:20;25.20;58.90
27188;DHT22;14708;50.872;5.306;2022-08-19T03:56:48;25.20;58.90
27188;DHT22;14708;50.872;5.306;2022-08-19T03:59:22;25.20;58.80
27188;DHT22;14708;50.872;5.306;2022-08-19T04:01:51;25.20;58.90
27188;DHT22;14708;50.872;5.306;2022-08-19T04:04:17;25.20;58.90
27188;DHT22;14708;50.872;5.306;2022-08-19T04:06:43;25.20;58.90
27188;DHT22;14708;50.872;5.306;2022-08-19T04:09:10;25.20;58.80
27188;DHT22;14708;50.872;5.306;2022-08-19T04:11:57;25.20;58.90
27188;DHT22;14708;50.872;5.306;2022-08-19T04:14:27;25.20;58.90
27188;DHT22;14708;50.872;5.306;2022-08-19T04:16:53;25.20;58.90
27188;DHT22;14708;50.872;5.306;2022-08-19T04:19:20;25.20;59.00
27188;DHT22;14708;50.872;5.306;2022-08-19T04:21:48;25.20;58.80
27188;DHT22;14708;50.872;5.306;2022-08-19T04:24:15;25.20;58.90
27188;DHT22;14708;50.872;5.306;2022-08-19T04:26:41;25.20;58.90
27188;DHT22;14708;50.872;5.306;2022-08-19T04:29:12;25.20;58.90
27188;DHT22;14708;50.872;5.306;2022-08-19T04:31:39;25.20;58.90
27188;DHT22;14708;50.872;5.306;2022-08-19T04:34:08;25.20;58.70
27188;DHT22;14708;50.872;5.306;2022-08-19T04:36:37;25.20;58.50
27188;DHT22;14708;50.872;5.306;2022-08-19T04:39:10;25.20;58.60
27188;DHT22;14708;50.872;5.306;2022-08-19T04:41:37;25.20;58.60
27188;DHT22;14708;50.872;5.306;2022-08-19T04:44:35;25.20;58.70
27188;DHT22;14708;50.872;5.306;2022-08-19T04:47:01;25.20;58.80
27188;DHT22;14708;50.872;5.306;2022-08-19T04:49:30;25.20;58.60
27188;DHT22;14708;50.872;5.306;2022-08-19T04:51:56;25.20;58.80
27188;DHT22;14708;50.872;5.306;2022-08-19T04:54:24;25.20;59.00
27188;DHT22;14708;50.872;5.306;2022-08-19T04:56:51;25.20;58.90
27188;DHT22;14708;50.872;5.306;2022-08-19T04:59:18;25.20;58.80
27188;DHT22;14708;50.872;5.306;2022-08-19T05:01:44;25.20;58.90
27188;DHT22;14708;50.872;5.306;2022-08-19T05:04:15;25.20;59.00
27188;DHT22;14708;50.872;5.306;2022-08-19T05:06:41;25.20;58.80
27188;DHT22;14708;50.872;5.306;2022-08-19T05:09:08;25.20;58.90
27188;DHT22;14708;50.872;5.306;2022-08-19T05:11:36;25.20;59.00
27188;DHT22;14708;50.872;5.306;2022-08-19T05:14:05;25.20;59.10
27188;DHT22;14708;50.872;5.306;2022-08-19T05:16:30;25.20;58.90
27188;DHT22;14708;50.872;5.306;2022-08-19T05:18:56;25.20;58.90
27188;DHT22;14708;50.872;5.306;2022-08-19T05:21:41;25.20;59.10
27188;DHT22;14708;50.872;5.306;2022-08-19T05:24:26;25.20;59.10
27188;DHT22;14708;50.872;5.306;2022-08-19T05:26:53;25.20;59.00
27188;DHT22;14708;50.872;5.306;2022-08-19T05:29:22;25.20;59.10
27188;DHT22;14708;50.872;5.306;2022-08-19T05:31:49;25.20;59.00
27188;DHT22;14708;50.872;5.306;2022-08-19T05:34:17;25.20;58.80
27188;DHT22;14708;50.872;5.306;2022-08-19T05:36:44;25.20;58.90
27188;DHT22;14708;50.872;5.306;2022-08-19T05:39:13;25.20;59.00
27188;DHT22;14708;50.872;5.306;2022-08-19T05:41:52;25.20;58.90
27188;DHT22;14708;50.872;5.306;2022-08-19T05:44:18;25.30;58.60
27188;DHT22;14708;50.872;5.306;2022-08-19T05:46:45;25.20;57.20
27188;DHT22;14708;50.872;5.306;2022-08-19T05:49:15;25.20;56.90
27188;DHT22;14708;50.872;5.306;2022-08-19T05:51:41;25.10;56.90
27188;DHT22;14708;50.872;5.306;2022-08-19T05:54:07;25.00;56.80
27188;DHT22;14708;50.872;5.306;2022-08-19T05:56:34;24.90;56.90
27188;DHT22;14708;50.872;5.306;2022-08-19T05:59:04;24.80;57.10
27188;DHT22;14708;50.872;5.306;2022-08-19T06:01:35;24.90;57.20
27188;DHT22;14708;50.872;5.306;2022-08-19T06:04:02;24.90;57.20
27188;DHT22;14708;50.872;5.306;2022-08-19T06:06:28;24.90;57.20
27188;DHT22;14708;50.872;5.306;2022-08-19T06:08:53;24.80;57.40
27188;DHT22;14708;50.872;5.306;2022-08-19T06:13:50;24.80;57.60
27188;DHT22;14708;50.872;5.306;2022-08-19T06:16:21;24.90;57.70
27188;DHT22;14708;50.872;5.306;2022-08-19T06:18:51;24.80;57.40
27188;DHT22;14708;50.872;5.306;2022-08-19T06:21:18;24.80;57.20
27188;DHT22;14708;50.872;5.306;2022-08-19T06:23:45;24.80;57.30
27188;DHT22;14708;50.872;5.306;2022-08-19T06:26:15;24.80;57.50
27188;DHT22;14708;50.872;5.306;2022-08-19T06:28:41;24.80;57.60
27188;DHT22;14708;50.872;5.306;2022-08-19T06:31:10;24.80;58.10
27188;DHT22;14708;50.872;5.306;2022-08-19T06:33:36;24.80;57.80
27188;DHT22;14708;50.872;5.306;2022-08-19T06:36:02;24.70;57.70
27188;DHT22;14708;50.872;5.306;2022-08-19T06:38:28;24.80;57.60
27188;DHT22;14708;50.872;5.306;2022-08-19T06:41:03;24.70;57.70
27188;DHT22;14708;50.872;5.306;2022-08-19T06:43:29;24.70;57.70
27188;DHT22;14708;50.872;5.306;2022-08-19T06:45:55;24.70;57.90
27188;DHT22;14708;50.872;5.306;2022-08-19T06:48:21;24.70;57.90
27188;DHT22;14708;50.872;5.306;2022-08-19T06:50:46;24.70;57.70
27188;DHT22;14708;50.872;5.306;2022-08-19T06:53:13;24.70;57.80
27188;DHT22;14708;50.872;5.306;2022-08-19T06:55:39;24.70;57.90
27188;DHT22;14708;50.872;5.306;2022-08-19T06:58:06;24.70;58.00
27188;DHT22;14708;50.872;5.306;2022-08-19T07:00:32;24.70;58.10
27188;DHT22;14708;50.872;5.306;2022-08-19T07:02:58;24.70;58.50
27188;DHT22;14708;50.872;5.306;2022-08-19T07:05:24;24.70;58.30
27188;DHT22;14708;50.872;5.306;2022-08-19T07:07:50;24.70;58.70
27188;DHT22;14708;50.872;5.306;2022-08-19T07:10:15;24.80;58.90
27188;DHT22;14708;50.872;5.306;2022-08-19T07:12:41;24.70;58.90
27188;DHT22;14708;50.872;5.306;2022-08-19T07:15:07;24.70;58.80
27188;DHT22;14708;50.872;5.306;2022-08-19T07:17:35;24.80;58.90
27188;DHT22;14708;50.872;5.306;2022-08-19T07:20:05;24.70;59.10
27188;DHT22;14708;50.872;5.306;2022-08-19T07:22:32;24.70;59.00
27188;DHT22;14708;50.872;5.306;2022-08-19T07:24:59;24.70;58.80
27188;DHT22;14708;50.872;5.306;2022-08-19T07:27:24;24.70;59.00
27188;DHT22;14708;50.872;5.306;2022-08-19T07:29:53;24.70;59.10
27188;DHT22;14708;50.872;5.306;2022-08-19T07:32:18;24.70;59.20
27188;DHT22;14708;50.872;5.306;2022-08-19T07:34:44;24.70;59.10
27188;DHT22;14708;50.872;5.306;2022-08-19T07:37:10;24.70;59.10
27188;DHT22;14708;50.872;5.306;2022-08-19T07:39:37;24.60;59.10
27188;DHT22;14708;50.872;5.306;2022-08-19T07:42:07;24.70;59.00
27188;DHT22;14708;50.872;5.306;2022-08-19T07:44:33;24.70;59.20
27188;DHT22;14708;50.872;5.306;2022-08-19T07:47:00;24.70;59.30
27188;DHT22;14708;50.872;5.306;2022-08-19T07:49:27;24.70;59.20
27188;DHT22;14708;50.872;5.306;2022-08-19T07:51:55;24.70;59.40
27188;DHT22;14708;50.872;5.306;2022-08-19T07:54:22;24.70;59.20
27188;DHT22;14708;50.872;5.306;2022-08-19T07:56:48;24.70;59.40
27188;DHT22;14708;50.872;5.306;2022-08-19T07:59:16;24.80;59.50
27188;DHT22;14708;50.872;5.306;2022-08-19T08:01:43;24.80;59.50
27188;DHT22;14708;50.872;5.306;2022-08-19T08:04:09;24.80;59.70
27188;DHT22;14708;50.872;5.306;2022-08-19T08:06:58;24.80;59.90
27188;DHT22;14708;50.872;5.306;2022-08-19T08:09:44;24.80;60.20
27188;DHT22;14708;50.872;5.306;2022-08-19T08:12:13;24.80;59.80
27188;DHT22;14708;50.872;5.306;2022-08-19T08:14:40;24.80;59.50
27188;DHT22;14708;50.872;5.306;2022-08-19T08:17:08;24.80;59.30
27188;DHT22;14708;50.872;5.306;2022-08-19T08:19:33;24.80;59.20
27188;DHT22;14708;50.872;5.306;2022-08-19T08:22:01;24.80;58.90
27188;DHT22;14708;50.872;5.306;2022-08-19T08:24:28;24.80;58.90
27188;DHT22;14708;50.872;5.306;2022-08-19T08:26:57;24.90;58.80
27188;DHT22;14708;50.872;5.306;2022-08-19T08:29:24;24.90;58.90
27188;DHT22;14708;50.872;5.306;2022-08-19T08:31:51;24.90;58.70
27188;DHT22;14708;50.872;5.306;2022-08-19T08:34:16;24.90;58.60
27188;DHT22;14708;50.872;5.306;2022-08-19T08:36:44;24.90;58.60
27188;DHT22;14708;50.872;5.306;2022-08-19T08:39:20;25.00;58.30
27188;DHT22;14708;50.872;5.306;2022-08-19T08:45:10;25.00;58.30
27188;DHT22;14708;50.872;5.306;2022-08-19T08:47:42;25.00;58.40
27188;DHT22;14708;50.872;5.306;2022-08-19T08:50:19;25.00;58.30
27188;DHT22;14708;50.872;5.306;2022-08-19T08:52:50;25.10;58.90
27188;DHT22;14708;50.872;5.306;2022-08-19T08:55:22;25.10;58.40
27188;DHT22;14708;50.872;5.306;2022-08-19T08:57:51;25.10;58.40
27188;DHT22;14708;50.872;5.306;2022-08-19T09:00:40;25.10;58.40
27188;DHT22;14708;50.872;5.306;2022-08-19T09:03:12;25.10;58.30
27188;DHT22;14708;50.872;5.306;2022-08-19T09:05:49;25.20;58.40
27188;DHT22;14708;50.872;5.306;2022-08-19T09:11:04;25.20;58.10
27188;DHT22;14708;50.872;5.306;2022-08-19T09:13:56;25.20;58.10
27188;DHT22;14708;50.872;5.306;2022-08-19T09:16:27;25.20;58.20
27188;DHT22;14708;50.872;5.306;2022-08-19T09:18:56;25.20;57.90
27188;DHT22;14708;50.872;5.306;2022-08-19T09:21:23;25.30;58.00
27188;DHT22;14708;50.872;5.306;2022-08-19T09:23:50;25.30;57.80
27188;DHT22;14708;50.872;5.306;2022-08-19T09:26:19;25.30;57.80
27188;DHT22;14708;50.872;5.306;2022-08-19T09:28:47;25.40;57.40
27188;DHT22;14708;50.872;5.306;2022-08-19T09:31:16;25.40;57.40
27188;DHT22;14708;50.872;5.306;2022-08-19T09:33:42;25.40;57.20
27188;DHT22;14708;50.872;5.306;2022-08-19T09:36:11;25.40;57.20
27188;DHT22;14708;50.872;5.306;2022-08-19T09:38:38;25.40;57.80
27188;DHT22;14708;50.872;5.306;2022-08-19T09:41:09;25.40;57.10
27188;DHT22;14708;50.872;5.306;2022-08-19T09:43:37;25.40;57.20
27188;DHT22;14708;50.872;5.306;2022-08-19T09:46:04;25.50;57.20
27188;DHT22;14708;50.872;5.306;2022-08-19T09:48:39;25.50;57.00
27188;DHT22;14708;50.872;5.306;2022-08-19T09:51:07;25.60;56.90
27188;DHT22;14708;50.872;5.306;2022-08-19T09:53:34;25.60;56.80
27188;DHT22;14708;50.872;5.306;2022-08-19T09:56:01;25.60;56.50
27188;DHT22;14708;50.872;5.306;2022-08-19T09:58:26;25.70;56.30
27188;DHT22;14708;50.872;5.306;2022-08-19T10:00:57;25.70;56.30
27188;DHT22;14708;50.872;5.306;2022-08-19T10:03:24;25.80;56.20
27188;DHT22;14708;50.872;5.306;2022-08-19T10:05:50;25.80;56.00
27188;DHT22;14708;50.872;5.306;2022-08-19T10:08:19;25.70;56.10
27188;DHT22;14708;50.872;5.306;2022-08-19T10:10:45;25.60;56.30
27188;DHT22;14708;50.872;5.306;2022-08-19T10:13:12;25.60;56.30
27188;DHT22;14708;50.872;5.306;2022-08-19T10:15:37;25.60;56.30
27188;DHT22;14708;50.872;5.306;2022-08-19T10:18:05;25.60;56.30
27188;DHT22;14708;50.872;5.306;2022-08-19T10:20:31;25.60;56.50
27188;DHT22;14708;50.872;5.306;2022-08-19T10:22:57;25.60;56.60
27188;DHT22;14708;50.872;5.306;2022-08-19T10:25:25;25.70;56.70
27188;DHT22;14708;50.872;5.306;2022-08-19T10:27:52;25.60;56.50
27188;DHT22;14708;50.872;5.306;2022-08-19T10:30:19;25.60;56.80
27188;DHT22;14708;50.872;5.306;2022-08-19T10:32:45;25.60;56.70
27188;DHT22;14708;50.872;5.306;2022-08-19T10:35:11;25.60;56.90
27188;DHT22;14708;50.872;5.306;2022-08-19T10:37:38;25.60;56.70
27188;DHT22;14708;50.872;5.306;2022-08-19T10:40:06;25.60;56.50
27188;DHT22;14708;50.872;5.306;2022-08-19T10:42:32;25.60;56.50
27188;DHT22;14708;50.872;5.306;2022-08-19T10:44:57;25.60;56.60
27188;DHT22;14708;50.872;5.306;2022-08-19T10:47:23;25.70;56.50
27188;DHT22;14708;50.872;5.306;2022-08-19T10:49:49;25.70;56.70
27188;DHT22;14708;50.872;5.306;2022-08-19T10:52:33;25.70;56.80
27188;DHT22;14708;50.872;5.306;2022-08-19T10:55:00;25.60;56.50
27188;DHT22;14708;50.872;5.306;2022-08-19T10:57:44;25.60;56.70
27188;DHT22;14708;50.872;5.306;2022-08-19T11:00:11;25.70;56.80
27188;DHT22;14708;50.872;5.306;2022-08-19T11:02:36;25.70;56.70
27188;DHT22;14708;50.872;5.306;2022-08-19T11:05:03;25.70;56.70
27188;DHT22;14708;50.872;5.306;2022-08-19T11:07:28;25.70;57.00
27188;DHT22;14708;50.872;5.306;2022-08-19T11:09:54;25.70;56.90
27188;DHT22;14708;50.872;5.306;2022-08-19T11:12:20;25.70;56.90
27188;DHT22;14708;50.872;5.306;2022-08-19T11:14:45;25.70;56.80
27188;DHT22;14708;50.872;5.306;2022-08-19T11:17:11;25.70;56.90
27188;DHT22;14708;50.872;5.306;2022-08-19T11:19:39;25.70;57.00
27188;DHT22;14708;50.872;5.306;2022-08-19T11:22:08;25.70;56.90
27188;DHT22;14708;50.872;5.306;2022-08-19T11:24:34;25.70;56.80
27188;DHT22;14708;50.872;5.306;2022-08-19T11:27:08;25.70;56.80
27188;DHT22;14708;50.872;5.306;2022-08-19T11:29:35;25.70;56.90
27188;DHT22;14708;50.872;5.306;2022-08-19T11:32:07;25.80;56.90
27188;DHT22;14708;50.872;5.306;2022-08-19T11:34:34;25.90;56.20
27188;DHT22;14708;50.872;5.306;2022-08-19T11:37:01;26.00;55.30
27188;DHT22;14708;50.872;5.306;2022-08-19T11:39:29;26.10;55.70
27188;DHT22;14708;50.872;5.306;2022-08-19T11:41:57;26.10;55.80
27188;DHT22;14708;50.872;5.306;2022-08-19T11:44:23;26.00;55.90
27188;DHT22;14708;50.872;5.306;2022-08-19T11:46:49;25.90;56.10
27188;DHT22;14708;50.872;5.306;2022-08-19T11:49:16;25.90;56.40
27188;DHT22;14708;50.872;5.306;2022-08-19T11:51:44;25.90;56.40
27188;DHT22;14708;50.872;5.306;2022-08-19T11:54:11;25.90;56.60
27188;DHT22;14708;50.872;5.306;2022-08-19T11:56:38;25.80;56.80
27188;DHT22;14708;50.872;5.306;2022-08-19T11:59:04;25.80;56.80
27188;DHT22;14708;50.872;5.306;2022-08-19T12:01:30;25.90;56.90
27188;DHT22;14708;50.872;5.306;2022-08-19T12:03:56;26.00;56.10
27188;DHT22;14708;50.872;5.306;2022-08-19T12:06:26;26.10;56.50
27188;DHT22;14708;50.872;5.306;2022-08-19T12:09:04;26.10;56.30
27188;DHT22;14708;50.872;5.306;2022-08-19T12:11:32;26.10;56.80
27188;DHT22;14708;50.872;5.306;2022-08-19T12:13:58;26.10;56.60
27188;DHT22;14708;50.872;5.306;2022-08-19T12:16:26;26.10;56.20
27188;DHT22;14708;50.872;5.306;2022-08-19T12:18:52;26.10;56.70
27188;DHT22;14708;50.872;5.306;2022-08-19T12:21:24;26.10;56.80
27188;DHT22;14708;50.872;5.306;2022-08-19T12:23:53;26.10;56.40
27188;DHT22;14708;50.872;5.306;2022-08-19T12:26:20;26.10;56.60
27188;DHT22;14708;50.872;5.306;2022-08-19T12:28:46;26.00;56.60
27188;DHT22;14708;50.872;5.306;2022-08-19T12:31:12;26.00;56.90
27188;DHT22;14708;50.872;5.306;2022-08-19T12:33:39;26.00;57.10
27188;DHT22;14708;50.872;5.306;2022-08-19T12:36:08;26.20;57.50
27188;DHT22;14708;50.872;5.306;2022-08-19T12:38:35;26.40;57.30
27188;DHT22;14708;50.872;5.306;2022-08-19T12:41:01;26.60;57.20
27188;DHT22;14708;50.872;5.306;2022-08-19T12:43:36;26.70;57.20
27188;DHT22;14708;50.872;5.306;2022-08-19T12:46:04;26.70;57.10
27188;DHT22;14708;50.872;5.306;2022-08-19T12:48:31;26.70;57.20
27188;DHT22;14708;50.872;5.306;2022-08-19T12:50:56;26.80;57.40
27188;DHT22;14708;50.872;5.306;2022-08-19T12:53:22;26.80;57.50
27188;DHT22;14708;50.872;5.306;2022-08-19T12:55:54;26.80;57.60
27188;DHT22;14708;50.872;5.306;2022-08-19T12:58:21;26.80;57.50
27188;DHT22;14708;50.872;5.306;2022-08-19T13:00:47;26.60;57.30
27188;DHT22;14708;50.872;5.306;2022-08-19T13:03:13;26.50;58.10
27188;DHT22;14708;50.872;5.306;2022-08-19T13:05:39;26.40;58.70
27188;DHT22;14708;50.872;5.306;2022-08-19T13:08:05;26.30;59.30
27188;DHT22;14708;50.872;5.306;2022-08-19T13:10:33;26.30;59.00
27188;DHT22;14708;50.872;5.306;2022-08-19T13:13:03;26.30;59.20
27188;DHT22;14708;50.872;5.306;2022-08-19T13:15:33;26.40;59.70
27188;DHT22;14708;50.872;5.306;2022-08-19T13:17:59;26.30;59.30
27188;DHT22;14708;50.872;5.306;2022-08-19T13:20:25;26.30;59.70
27188;DHT22;14708;50.872;5.306;2022-08-19T13:22:51;26.30;59.30
27188;DHT22;14708;50.872;5.306;2022-08-19T13:25:17;26.40;60.10
27188;DHT22;14708;50.872;5.306;2022-08-19T13:27:45;26.30;59.50
27188;DHT22;14708;50.872;5.306;2022-08-19T13:30:12;26.20;59.70
27188;DHT22;14708;50.872;5.306;2022-08-19T13:32:57;26.20;59.80
27188;DHT22;14708;50.872;5.306;2022-08-19T13:35:50;26.20;59.90
27188;DHT22;14708;50.872;5.306;2022-08-19T13:38:22;26.30;60.00
27188;DHT22;14708;50.872;5.306;2022-08-19T13:40:49;26.30;60.10
27188;DHT22;14708;50.872;5.306;2022-08-19T13:43:16;26.20;59.90
27188;DHT22;14708;50.872;5.306;2022-08-19T13:45:41;26.20;59.70
27188;DHT22;14708;50.872;5.306;2022-08-19T13:48:08;26.30;60.70
27188;DHT22;14708;50.872;5.306;2022-08-19T13:50:37;26.40;61.10
27188;DHT22;14708;50.872;5.306;2022-08-19T13:53:03;26.50;61.50
27188;DHT22;14708;50.872;5.306;2022-08-19T13:55:29;26.60;61.80
27188;DHT22;14708;50.872;5.306;2022-08-19T13:57:58;26.70;62.50
27188;DHT22;14708;50.872;5.306;2022-08-19T14:00:26;26.70;61.80
27188;DHT22;14708;50.872;5.306;2022-08-19T14:02:56;26.80;62.60
27188;DHT22;14708;50.872;5.306;2022-08-19T14:05:22;26.90;62.30
27188;DHT22;14708;50.872;5.306;2022-08-19T14:07:49;26.80;62.40
27188;DHT22;14708;50.872;5.306;2022-08-19T14:10:15;26.80;62.40
27188;DHT22;14708;50.872;5.306;2022-08-19T14:12:41;26.90;62.30
27188;DHT22;14708;50.872;5.306;2022-08-19T14:15:09;27.00;61.80
27188;DHT22;14708;50.872;5.306;2022-08-19T14:17:41;26.90;61.00
27188;DHT22;14708;50.872;5.306;2022-08-19T14:20:09;26.80;61.50
27188;DHT22;14708;50.872;5.306;2022-08-19T14:22:37;26.60;60.60
27188;DHT22;14708;50.872;5.306;2022-08-19T14:25:15;26.60;61.60
27188;DHT22;14708;50.872;5.306;2022-08-19T14:27:41;26.60;61.40
27188;DHT22;14708;50.872;5.306;2022-08-19T14:30:09;26.50;61.10
27188;DHT22;14708;50.872;5.306;2022-08-19T14:32:36;26.50;61.00
27188;DHT22;14708;50.872;5.306;2022-08-19T14:35:03;26.60;61.10
27188;DHT22;14708;50.872;5.306;2022-08-19T14:37:29;26.50;61.10
27188;DHT22;14708;50.872;5.306;2022-08-19T14:39:55;26.50;61.00
27188;DHT22;14708;50.872;5.306;2022-08-19T14:42:21;26.50;61.40
27188;DHT22;14708;50.872;5.306;2022-08-19T14:44:46;26.50;61.30
27188;DHT22;14708;50.872;5.306;2022-08-19T14:47:12;26.50;61.60
27188;DHT22;14708;50.872;5.306;2022-08-19T14:49:37;26.40;61.70
27188;DHT22;14708;50.872;5.306;2022-08-19T14:52:04;26.40;61.90
27188;DHT22;14708;50.872;5.306;2022-08-19T14:54:30;26.50;61.90
27188;DHT22;14708;50.872;5.306;2022-08-19T14:56:56;26.50;61.90
27188;DHT22;14708;50.872;5.306;2022-08-19T14:59:23;26.50;62.10
27188;DHT22;14708;50.872;5.306;2022-08-19T15:01:49;26.50;62.20
27188;DHT22;14708;50.872;5.306;2022-08-19T15:04:14;26.50;62.30
27188;DHT22;14708;50.872;5.306;2022-08-19T15:06:40;26.50;62.00
27188;DHT22;14708;50.872;5.306;2022-08-19T15:09:08;26.60;62.10
27188;DHT22;14708;50.872;5.306;2022-08-19T15:11:34;26.60;62.50
27188;DHT22;14708;50.872;5.306;2022-08-19T15:13:59;26.60;62.10
27188;DHT22;14708;50.872;5.306;2022-08-19T15:16:27;26.50;61.40
27188;DHT22;14708;50.872;5.306;2022-08-19T15:18:56;26.50;61.80
27188;DHT22;14708;50.872;5.306;2022-08-19T15:21:23;26.50;61.70
27188;DHT22;14708;50.872;5.306;2022-08-19T15:23:50;26.50;61.40
27188;DHT22;14708;50.872;5.306;2022-08-19T15:26:18;26.50;61.40
27188;DHT22;14708;50.872;5.306;2022-08-19T15:28:44;26.50;61.10
27188;DHT22;14708;50.872;5.306;2022-08-19T15:31:11;26.50;61.50
27188;DHT22;14708;50.872;5.306;2022-08-19T15:33:38;26.50;61.60
27188;DHT22;14708;50.872;5.306;2022-08-19T15:36:07;26.50;61.30
27188;DHT22;14708;50.872;5.306;2022-08-19T15:38:33;26.60;60.00
27188;DHT22;14708;50.872;5.306;2022-08-19T15:41:01;26.60;58.10
27188;DHT22;14708;50.872;5.306;2022-08-19T15:43:47;26.60;58.20